createdAt,value
2023-08-23T00:02:04.084Z,99.90
2023-08-23T00:04:35.941Z,99.90
2023-08-23T00:07:04.910Z,99.90
2023-08-23T00:09:33.122Z,99.90
2023-08-23T00:12:01.975Z,99.90
2023-08-23T00:14:30.867Z,99.90
2023-08-23T00:16:59.450Z,99.90
2023-08-23T00:19:28.872Z,99.90
2023-08-23T00:21:57.767Z,99.90
2023-08-23T00:24:26.230Z,99.90
2023-08-23T00:26:56.049Z,99.90
2023-08-23T00:29:25.241Z,99.90
2023-08-23T00:31:53.351Z,99.90
2023-08-23T00:34:22.213Z,99.90
2023-08-23T00:36:51.366Z,99.90
2023-08-23T00:39:20.142Z,99.90
2023-08-23T00:41:49.086Z,99.90
2023-08-23T00:44:17.686Z,99.90
2023-08-23T00:46:46.014Z,99.90
2023-08-23T00:49:15.348Z,99.90
2023-08-23T00:51:43.668Z,99.90
2023-08-23T00:54:13.725Z,99.90
2023-08-23T00:56:42.564Z,99.90
2023-08-23T00:59:11.616Z,99.90
2023-08-23T01:01:41.209Z,99.90
2023-08-23T01:04:09.899Z,99.90
2023-08-23T01:06:38.938Z,99.90
2023-08-23T01:09:21.988Z,99.90
2023-08-23T01:11:56.924Z,99.90
2023-08-23T01:14:42.186Z,99.90
2023-08-23T01:17:11.947Z,99.90
2023-08-23T01:19:47.446Z,99.90
2023-08-23T01:22:25.244Z,99.90
2023-08-23T01:24:54.854Z,99.90
2023-08-23T01:27:23.613Z,99.90
2023-08-23T01:29:52.262Z,99.90
2023-08-23T01:32:39.249Z,99.90
2023-08-23T01:35:18.697Z,99.90
2023-08-23T01:37:51.705Z,99.90
2023-08-23T01:40:20.183Z,99.90
2023-08-23T01:42:49.716Z,99.90
2023-08-23T01:45:18.214Z,99.90
2023-08-23T01:47:47.230Z,99.90
2023-08-23T01:50:16.994Z,99.90
2023-08-23T01:52:45.180Z,99.90
2023-08-23T01:55:15.240Z,99.90
2023-08-23T01:57:43.672Z,99.90
2023-08-23T02:00:12.323Z,99.90
2023-08-23T02:02:44.352Z,99.90
2023-08-23T02:05:13.569Z,99.90
2023-08-23T02:07:42.105Z,99.90
2023-08-23T02:10:11.160Z,99.90
2023-08-23T02:12:40.857Z,99.90
2023-08-23T02:15:09.923Z,99.90
2023-08-23T02:17:39.186Z,99.90
2023-08-23T02:20:08.502Z,99.90
2023-08-23T02:22:37.515Z,99.90
2023-08-23T02:25:06.332Z,99.90
2023-08-23T02:27:34.877Z,99.90
2023-08-23T02:30:03.399Z,99.90
2023-08-23T02:32:32.020Z,99.90
2023-08-23T02:35:01.195Z,99.90
2023-08-23T02:37:30.134Z,99.90
2023-08-23T02:39:59.535Z,99.90
2023-08-23T02:42:27.882Z,99.90
2023-08-23T02:44:56.407Z,99.90
2023-08-23T02:47:25.454Z,99.90
2023-08-23T02:49:53.508Z,99.90
2023-08-23T02:52:22.827Z,99.90
2023-08-23T02:54:53.555Z,99.90
2023-08-23T02:57:22.415Z,99.90
2023-08-23T02:59:50.931Z,99.90
2023-08-23T03:02:20.182Z,99.90
2023-08-23T03:04:48.496Z,99.90
2023-08-23T03:07:17.152Z,99.90
2023-08-23T03:09:45.912Z,99.90
2023-08-23T03:12:14.420Z,99.90
2023-08-23T03:14:43.554Z,99.90
2023-08-23T03:17:11.674Z,99.90
2023-08-23T03:19:40.152Z,99.90
2023-08-23T03:22:08.749Z,99.90
2023-08-23T03:24:37.860Z,99.90
2023-08-23T03:27:06.044Z,99.90
2023-08-23T03:29:35.443Z,99.90
2023-08-23T03:32:03.789Z,99.90
2023-08-23T03:34:33.204Z,99.90
2023-08-23T03:37:01.379Z,99.90
2023-08-23T03:39:30.629Z,99.90
2023-08-23T03:41:59.944Z,99.90
2023-08-23T03:44:28.841Z,99.90
2023-08-23T03:46:59.973Z,99.90
2023-08-23T03:49:29.611Z,99.90
2023-08-23T03:51:59.186Z,99.90
2023-08-23T03:54:27.777Z,99.90
2023-08-23T03:56:56.647Z,99.90
2023-08-23T03:59:25.817Z,99.90
2023-08-23T04:01:54.626Z,99.90
2023-08-23T04:04:23.350Z,99.90
2023-08-23T04:06:51.648Z,99.90
2023-08-23T04:09:20.763Z,99.90
2023-08-23T04:11:49.844Z,99.90
2023-08-23T04:14:18.606Z,99.90
2023-08-23T04:16:47.164Z,99.90
2023-08-23T04:19:15.458Z,99.90
2023-08-23T04:21:43.928Z,99.90
2023-08-23T04:24:12.953Z,99.90
2023-08-23T04:26:41.506Z,99.90
2023-08-23T04:29:10.037Z,99.90
2023-08-23T04:31:38.762Z,99.90
2023-08-23T04:34:14.716Z,99.90
2023-08-23T04:36:43.478Z,99.90
2023-08-23T04:39:13.764Z,99.90
2023-08-23T04:41:42.457Z,99.90
2023-08-23T04:44:10.887Z,99.90
2023-08-23T04:46:40.036Z,99.90
2023-08-23T04:49:08.044Z,99.90
2023-08-23T04:51:36.475Z,99.90
2023-08-23T04:54:05.293Z,99.90
2023-08-23T04:56:33.551Z,99.90
2023-08-23T04:59:02.200Z,99.90
2023-08-23T05:01:31.602Z,99.90
2023-08-23T05:04:00.492Z,99.90
2023-08-23T05:06:29.015Z,99.90
2023-08-23T05:08:58.310Z,99.90
2023-08-23T05:11:27.622Z,99.90
2023-08-23T05:13:55.854Z,99.90
2023-08-23T05:16:25.412Z,99.90
2023-08-23T05:18:54.771Z,99.90
2023-08-23T05:21:23.685Z,99.90
2023-08-23T05:23:52.154Z,99.90
2023-08-23T05:26:21.846Z,99.90
2023-08-23T05:28:50.711Z,99.90
2023-08-23T05:31:19.285Z,99.90
2023-08-23T05:33:47.363Z,99.90
2023-08-23T05:36:17.517Z,99.90
2023-08-23T05:38:47.896Z,99.90
2023-08-23T05:41:16.023Z,99.90
2023-08-23T05:43:45.618Z,99.90
2023-08-23T05:46:14.912Z,99.90
2023-08-23T05:48:45.670Z,99.90
2023-08-23T05:51:14.243Z,99.90
2023-08-23T05:53:42.452Z,99.90
2023-08-23T05:56:11.303Z,99.90
2023-08-23T05:58:39.990Z,99.90
2023-08-23T06:01:08.135Z,99.90
2023-08-23T06:03:37.762Z,99.90
2023-08-23T06:06:06.655Z,99.90
2023-08-23T06:08:35.499Z,99.90
2023-08-23T06:11:04.834Z,99.90
2023-08-23T06:13:33.790Z,99.90
2023-08-23T06:16:01.911Z,99.90
2023-08-23T06:18:31.192Z,99.90
2023-08-23T06:20:59.638Z,99.90
2023-08-23T06:23:28.272Z,99.90
2023-08-23T06:26:00.370Z,99.90
2023-08-23T06:28:29.290Z,99.90
2023-08-23T06:30:57.888Z,99.90
2023-08-23T06:33:27.070Z,99.90
2023-08-23T06:35:56.261Z,99.90
2023-08-23T06:38:24.808Z,99.90
2023-08-23T06:40:53.007Z,99.90
2023-08-23T06:43:21.201Z,99.90
2023-08-23T06:45:49.202Z,99.90
2023-08-23T06:48:18.332Z,99.90
2023-08-23T06:50:46.847Z,99.90
2023-08-23T06:53:14.894Z,99.90
2023-08-23T06:55:43.554Z,99.90
2023-08-23T06:58:11.800Z,99.90
2023-08-23T07:00:40.416Z,99.90
2023-08-23T07:03:10.145Z,99.90
2023-08-23T07:05:39.792Z,99.90
2023-08-23T07:08:07.921Z,99.90
2023-08-23T07:10:37.482Z,99.90
2023-08-23T07:13:06.317Z,99.90
2023-08-23T07:15:37.847Z,99.90
2023-08-23T07:18:06.715Z,99.90
2023-08-23T07:20:37.478Z,99.90
2023-08-23T07:23:06.020Z,99.90
2023-08-23T07:25:35.483Z,99.90
2023-08-23T07:28:04.266Z,99.90
2023-08-23T07:30:32.701Z,99.90
2023-08-23T07:33:01.985Z,99.90
2023-08-23T07:35:30.995Z,99.90
2023-08-23T07:38:00.144Z,99.90
2023-08-23T07:40:28.743Z,99.90
2023-08-23T07:42:58.532Z,99.90
2023-08-23T07:45:27.078Z,99.90
2023-08-23T07:47:56.355Z,99.90
2023-08-23T07:50:24.777Z,99.90
2023-08-23T07:52:55.336Z,99.90
2023-08-23T07:55:24.657Z,99.90
2023-08-23T07:57:53.936Z,99.90
2023-08-23T08:00:22.627Z,99.90
2023-08-23T08:02:52.987Z,99.90
2023-08-23T08:05:22.330Z,99.90
2023-08-23T08:10:22.790Z,99.90
2023-08-23T08:12:51.479Z,99.90
2023-08-23T08:15:21.557Z,99.90
2023-08-23T08:17:52.513Z,99.90
2023-08-23T08:20:26.287Z,99.90
2023-08-23T08:22:55.855Z,99.90
2023-08-23T08:25:25.548Z,99.90
2023-08-23T08:27:54.916Z,99.90
2023-08-23T08:30:23.559Z,99.90
2023-08-23T08:32:53.249Z,99.90
2023-08-23T08:35:21.956Z,99.90
2023-08-23T08:37:51.150Z,99.90
2023-08-23T08:40:23.362Z,99.90
2023-08-23T08:42:52.936Z,99.90
2023-08-23T08:45:22.052Z,99.90
2023-08-23T08:47:52.579Z,99.90
2023-08-23T08:50:22.097Z,99.90
2023-08-23T08:52:55.011Z,99.90
2023-08-23T08:55:24.197Z,99.90
2023-08-23T08:57:55.923Z,99.90
2023-08-23T09:00:31.155Z,99.90
2023-08-23T09:03:01.797Z,99.90
2023-08-23T09:05:33.439Z,99.90
2023-08-23T09:08:04.082Z,99.90
2023-08-23T09:10:32.947Z,99.90
2023-08-23T09:13:02.960Z,99.90
2023-08-23T09:15:33.080Z,99.90
2023-08-23T09:18:02.642Z,99.90
2023-08-23T09:20:31.425Z,99.90
2023-08-23T09:23:02.029Z,99.90
2023-08-23T09:25:30.967Z,99.90
2023-08-23T09:27:59.947Z,99.90
2023-08-23T09:30:28.821Z,99.90
2023-08-23T09:33:00.998Z,99.90
2023-08-23T09:35:30.828Z,99.90
2023-08-23T09:37:59.859Z,99.90
2023-08-23T09:40:29.208Z,99.90
2023-08-23T09:43:00.112Z,99.90
2023-08-23T09:45:29.901Z,99.90
2023-08-23T09:48:03.460Z,99.90
2023-08-23T09:50:33.949Z,99.90
2023-08-23T09:53:08.218Z,99.90
2023-08-23T09:55:36.724Z,99.90
2023-08-23T09:58:05.715Z,99.30
2023-08-23T10:00:35.596Z,99.90
2023-08-23T10:03:05.443Z,99.90
2023-08-23T10:05:37.323Z,98.50
2023-08-23T10:08:07.489Z,98.20
2023-08-23T10:10:38.271Z,97.80
2023-08-23T10:13:07.651Z,95.80
2023-08-23T10:15:40.182Z,95.40
2023-08-23T10:18:13.630Z,96.10
2023-08-23T10:20:43.670Z,95.30
2023-08-23T10:23:16.929Z,97.10
2023-08-23T10:25:48.022Z,95.00
2023-08-23T10:28:20.742Z,94.80
2023-08-23T10:30:58.870Z,91.40
2023-08-23T10:33:42.300Z,86.80
2023-08-23T10:36:22.316Z,80.10
2023-08-23T10:38:51.312Z,74.60
2023-08-23T10:41:20.024Z,87.10
2023-08-23T10:43:49.016Z,85.30
2023-08-23T10:46:24.344Z,83.20
2023-08-23T10:48:54.997Z,78.80
2023-08-23T10:51:23.783Z,78.00
2023-08-23T10:53:52.418Z,76.00
2023-08-23T10:56:21.966Z,77.70
2023-08-23T10:58:51.657Z,80.40
2023-08-23T11:01:22.809Z,77.30
2023-08-23T11:03:52.838Z,74.20
2023-08-23T11:06:22.369Z,74.40
2023-08-23T11:08:51.686Z,72.40
2023-08-23T11:11:20.142Z,74.70
2023-08-23T11:13:50.608Z,76.30
2023-08-23T11:16:19.737Z,76.60
2023-08-23T11:18:48.384Z,74.10
2023-08-23T11:21:19.052Z,75.10
2023-08-23T11:23:48.738Z,75.00
2023-08-23T11:26:17.252Z,77.40
2023-08-23T11:28:47.067Z,76.50
2023-08-23T11:31:16.384Z,74.70
2023-08-23T11:33:46.181Z,72.80
2023-08-23T11:36:21.143Z,75.40
2023-08-23T11:38:52.027Z,76.50
2023-08-23T11:41:30.164Z,77.00
2023-08-23T11:43:58.623Z,75.60
2023-08-23T11:46:29.062Z,76.00
2023-08-23T11:48:57.778Z,75.90
2023-08-23T11:51:26.976Z,75.90
2023-08-23T11:53:56.460Z,75.00
2023-08-23T11:56:27.866Z,75.70
2023-08-23T11:58:57.216Z,74.50
2023-08-23T12:01:26.138Z,73.30
2023-08-23T12:03:56.525Z,72.60
2023-08-23T12:06:26.087Z,73.40
2023-08-23T12:08:56.247Z,75.60
2023-08-23T12:11:29.280Z,72.40
2023-08-23T12:14:07.580Z,73.30
2023-08-23T12:16:37.288Z,72.90
2023-08-23T12:19:17.667Z,71.80
2023-08-23T12:22:21.341Z,75.00
2023-08-23T12:24:50.431Z,73.10
2023-08-23T12:27:19.537Z,69.50
2023-08-23T12:29:47.538Z,70.60
2023-08-23T12:32:16.949Z,68.40
2023-08-23T12:34:46.064Z,66.90
2023-08-23T12:37:15.308Z,69.40
2023-08-23T12:39:44.242Z,69.30
2023-08-23T12:42:13.187Z,69.00
2023-08-23T12:44:43.111Z,69.90
2023-08-23T12:47:12.410Z,70.80
2023-08-23T12:49:40.856Z,71.20
2023-08-23T12:52:10.360Z,71.60
2023-08-23T12:54:39.268Z,69.70
2023-08-23T12:57:08.510Z,69.30
2023-08-23T12:59:37.491Z,66.90
2023-08-23T13:02:06.349Z,65.60
2023-08-23T13:04:35.075Z,69.30
2023-08-23T13:07:05.153Z,67.30
2023-08-23T13:09:36.057Z,66.60
2023-08-23T13:12:06.359Z,66.70
2023-08-23T13:14:36.961Z,66.60
2023-08-23T13:17:06.150Z,67.00
2023-08-23T13:19:36.344Z,65.60
2023-08-23T13:22:05.117Z,62.50
2023-08-23T13:24:33.996Z,66.00
2023-08-23T13:27:02.960Z,64.50
2023-08-23T13:30:47.488Z,65.50
2023-08-23T13:33:17.114Z,65.20
2023-08-23T13:35:46.624Z,65.40
2023-08-23T13:38:15.989Z,65.30
2023-08-23T13:40:48.081Z,63.70
2023-08-23T13:43:17.668Z,65.00
2023-08-23T13:45:47.312Z,65.90
2023-08-23T13:48:17.172Z,66.30
2023-08-23T13:50:45.315Z,62.20
2023-08-23T13:53:14.049Z,62.50
2023-08-23T13:55:43.420Z,63.50
2023-08-23T13:58:12.021Z,61.90
2023-08-23T14:00:40.864Z,60.70
2023-08-23T14:03:08.930Z,61.80
2023-08-23T14:05:39.417Z,61.80
2023-08-23T14:08:08.782Z,60.70
2023-08-23T14:10:38.754Z,59.80
2023-08-23T14:13:07.380Z,59.50
2023-08-23T14:15:36.743Z,58.70
2023-08-23T14:18:05.450Z,60.20
2023-08-23T14:20:34.039Z,58.70
2023-08-23T14:23:03.149Z,60.90
2023-08-23T14:25:33.184Z,62.10
2023-08-23T14:28:02.350Z,61.90
2023-08-23T14:30:31.071Z,58.80
2023-08-23T14:33:00.812Z,60.70
2023-08-23T14:35:30.023Z,62.00
2023-08-23T14:37:58.060Z,60.90
2023-08-23T14:40:28.229Z,61.40
2023-08-23T14:42:57.192Z,62.50
2023-08-23T14:45:27.820Z,60.90
2023-08-23T14:47:57.699Z,58.40
2023-08-23T14:50:27.512Z,58.80
2023-08-23T14:52:56.376Z,58.40
2023-08-23T14:55:26.805Z,57.00
2023-08-23T14:57:55.892Z,60.30
2023-08-23T15:00:31.452Z,60.50
2023-08-23T15:03:00.207Z,59.50
2023-08-23T15:05:28.908Z,63.00
2023-08-23T15:07:59.096Z,62.10
2023-08-23T15:10:28.298Z,64.60
2023-08-23T15:12:57.452Z,61.80
2023-08-23T15:15:28.919Z,60.70
2023-08-23T15:17:57.922Z,59.40
2023-08-23T15:20:27.238Z,59.80
2023-08-23T15:22:55.721Z,62.40
2023-08-23T15:25:25.850Z,59.90
2023-08-23T15:27:55.208Z,65.10
2023-08-23T15:30:24.478Z,67.90
2023-08-23T15:32:53.668Z,70.90
2023-08-23T15:35:21.806Z,77.60
2023-08-23T15:37:50.591Z,80.30
2023-08-23T15:40:21.303Z,82.20
2023-08-23T15:42:50.084Z,85.50
2023-08-23T15:45:20.261Z,85.20
2023-08-23T15:47:51.727Z,88.90
2023-08-23T15:50:22.312Z,88.20
2023-08-23T15:52:50.870Z,90.40
2023-08-23T15:55:20.250Z,88.70
2023-08-23T15:57:50.418Z,87.00
2023-08-23T16:00:23.542Z,89.10
2023-08-23T16:02:54.635Z,90.10
2023-08-23T16:05:24.735Z,88.10
2023-08-23T16:07:53.454Z,87.50
2023-08-23T16:10:21.984Z,88.40
2023-08-23T16:12:51.331Z,91.40
2023-08-23T16:15:20.640Z,95.10
2023-08-23T16:17:49.351Z,97.30
2023-08-23T16:20:18.947Z,97.30
2023-08-23T16:22:47.631Z,99.90
2023-08-23T16:25:16.742Z,99.90
2023-08-23T16:27:46.287Z,99.90
2023-08-23T16:30:15.554Z,99.90
2023-08-23T16:32:44.511Z,99.90
2023-08-23T16:35:14.317Z,99.90
2023-08-23T16:37:50.404Z,99.90
2023-08-23T16:40:19.345Z,99.90
2023-08-23T16:42:48.682Z,99.90
2023-08-23T16:45:18.236Z,99.90
2023-08-23T16:47:47.321Z,99.90
2023-08-23T16:50:15.461Z,99.90
2023-08-23T16:52:45.325Z,99.90
2023-08-23T16:55:15.335Z,99.90
2023-08-23T16:57:44.843Z,99.90
2023-08-23T17:00:14.817Z,99.90
2023-08-23T17:02:49.787Z,99.90
2023-08-23T17:05:18.524Z,99.90
2023-08-23T17:07:47.618Z,99.90
2023-08-23T17:10:17.523Z,99.90
2023-08-23T17:12:49.696Z,99.90
2023-08-23T17:15:21.590Z,99.90
2023-08-23T17:17:50.725Z,99.90
2023-08-23T17:20:19.872Z,99.90
2023-08-23T17:22:49.547Z,99.90
2023-08-23T17:25:18.134Z,99.90
2023-08-23T17:28:13.244Z,99.90
2023-08-23T17:30:41.853Z,99.90
2023-08-23T17:33:11.633Z,99.90
2023-08-23T17:35:40.539Z,99.90
2023-08-23T17:38:10.348Z,99.90
2023-08-23T17:40:41.666Z,99.90
2023-08-23T17:43:10.665Z,99.90
2023-08-23T17:45:41.263Z,99.90
2023-08-23T17:48:11.031Z,99.90
2023-08-23T17:50:39.674Z,99.90
2023-08-23T17:53:12.228Z,99.90
2023-08-23T17:55:43.791Z,99.90
2023-08-23T17:58:12.440Z,99.90
2023-08-23T18:00:41.278Z,99.90
2023-08-23T18:03:13.152Z,99.90
2023-08-23T18:05:41.966Z,99.90
2023-08-23T18:08:11.421Z,99.90
2023-08-23T18:10:40.510Z,99.90
2023-08-23T18:13:08.655Z,99.90
2023-08-23T18:15:36.775Z,99.90
2023-08-23T18:18:05.885Z,99.90
2023-08-23T18:20:35.053Z,99.90
2023-08-23T18:23:09.639Z,99.90
2023-08-23T18:25:39.578Z,99.90
2023-08-23T18:28:09.182Z,99.90
2023-08-23T18:30:40.046Z,99.90
2023-08-23T18:33:10.564Z,99.90
2023-08-23T18:35:40.260Z,99.90
2023-08-23T18:38:09.551Z,99.90
2023-08-23T18:40:38.233Z,99.90
2023-08-23T18:43:06.471Z,99.90
2023-08-23T18:45:35.410Z,99.90
2023-08-23T18:48:04.877Z,99.90
2023-08-23T18:50:33.680Z,99.90
2023-08-23T18:53:02.395Z,99.90
2023-08-23T18:55:30.507Z,99.90
2023-08-23T18:57:59.236Z,99.90
2023-08-23T19:00:27.871Z,99.90
2023-08-23T19:02:57.044Z,99.90
2023-08-23T19:05:26.143Z,99.90
2023-08-23T19:07:55.046Z,99.90
2023-08-23T19:10:23.784Z,99.90
2023-08-23T19:12:52.528Z,99.90
2023-08-23T19:15:20.721Z,99.90
2023-08-23T19:17:53.991Z,99.90
2023-08-23T19:20:25.061Z,99.90
2023-08-23T19:22:53.769Z,99.90
2023-08-23T19:25:23.516Z,99.90
2023-08-23T19:27:55.609Z,99.90
2023-08-23T19:30:25.397Z,99.90
2023-08-23T19:32:54.966Z,99.90
2023-08-23T19:35:45.883Z,99.90
2023-08-23T19:38:14.371Z,99.90
2023-08-23T19:41:32.759Z,99.90
2023-08-23T19:44:01.403Z,99.90
2023-08-23T19:46:30.293Z,99.90
2023-08-23T19:48:58.692Z,99.90
2023-08-23T19:51:27.076Z,99.90
2023-08-23T19:53:56.230Z,99.90
2023-08-23T19:56:25.642Z,99.90
2023-08-23T19:58:54.612Z,99.90
2023-08-23T20:01:23.215Z,99.90
2023-08-23T20:03:52.822Z,99.90
2023-08-23T20:06:22.123Z,99.90
2023-08-23T20:08:51.490Z,99.90
2023-08-23T20:11:20.864Z,99.90
2023-08-23T20:13:49.458Z,99.90
2023-08-23T20:16:18.803Z,99.90
2023-08-23T20:18:48.144Z,99.90
2023-08-23T20:21:17.530Z,99.90
2023-08-23T20:23:46.049Z,99.90
2023-08-23T20:26:14.125Z,99.90
2023-08-23T20:28:43.406Z,99.90
2023-08-23T20:31:12.453Z,99.90
2023-08-23T20:33:42.698Z,99.90
2023-08-23T20:36:10.890Z,99.90
2023-08-23T20:38:39.681Z,99.90
2023-08-23T20:41:08.367Z,99.90
2023-08-23T20:43:37.096Z,99.90
2023-08-23T20:46:06.429Z,99.90
2023-08-23T20:48:35.460Z,99.90
2023-08-23T20:51:05.121Z,99.90
2023-08-23T20:53:35.328Z,99.90
2023-08-23T20:56:04.677Z,99.90
2023-08-23T20:58:33.468Z,99.90
2023-08-23T21:01:02.616Z,99.90
2023-08-23T21:03:34.852Z,99.90
2023-08-23T21:06:04.163Z,99.90
2023-08-23T21:08:33.434Z,99.90
2023-08-23T21:11:01.636Z,99.90
2023-08-23T21:13:29.868Z,99.90
2023-08-23T21:15:59.524Z,99.90
2023-08-23T21:18:27.652Z,99.90
2023-08-23T21:20:57.233Z,99.90
2023-08-23T21:23:27.048Z,99.90
2023-08-23T21:25:56.479Z,99.90
2023-08-23T21:28:25.219Z,99.90
2023-08-23T21:30:54.697Z,99.90
2023-08-23T21:33:23.944Z,99.90
2023-08-23T21:35:52.976Z,99.90
2023-08-23T21:38:22.886Z,99.90
2023-08-23T21:41:00.680Z,99.90
2023-08-23T21:43:30.134Z,99.90
2023-08-23T21:45:59.344Z,99.90
2023-08-23T21:48:28.546Z,99.90
2023-08-23T21:50:57.681Z,99.90
2023-08-23T21:53:26.611Z,99.90
2023-08-23T21:55:56.778Z,99.90
2023-08-23T21:58:27.455Z,99.90
2023-08-23T22:00:58.803Z,99.90
2023-08-23T22:03:43.027Z,99.90
2023-08-23T22:06:14.459Z,99.90
2023-08-23T22:08:45.984Z,99.90
2023-08-23T22:11:15.991Z,99.90
2023-08-23T22:13:45.704Z,99.90
2023-08-23T22:16:14.885Z,99.90
2023-08-23T22:18:43.550Z,99.90
2023-08-23T22:21:12.372Z,99.90
2023-08-23T22:23:40.480Z,99.90
2023-08-23T22:26:09.408Z,99.90
2023-08-23T22:28:38.235Z,99.90
2023-08-23T22:31:10.700Z,99.90
2023-08-23T22:33:40.470Z,99.90
2023-08-23T22:36:11.318Z,99.90
2023-08-23T22:38:44.690Z,99.90
2023-08-23T22:41:14.003Z,99.90
2023-08-23T22:43:42.389Z,99.90
2023-08-23T22:46:21.896Z,99.90
2023-08-23T22:48:58.859Z,99.90
2023-08-23T22:51:27.478Z,99.90
2023-08-23T22:53:57.229Z,99.90
2023-08-23T22:56:25.747Z,99.90
2023-08-23T22:58:54.422Z,99.90
2023-08-23T23:01:23.697Z,99.90
2023-08-23T23:03:52.751Z,99.90
2023-08-23T23:06:21.272Z,99.90
2023-08-23T23:08:49.958Z,99.90
2023-08-23T23:11:18.865Z,99.90
2023-08-23T23:13:47.364Z,99.90
2023-08-23T23:16:16.441Z,99.90
2023-08-23T23:18:45.913Z,99.90
2023-08-23T23:21:15.901Z,99.90
2023-08-23T23:23:44.126Z,99.90
2023-08-23T23:26:13.881Z,99.90
2023-08-23T23:28:44.539Z,99.90
2023-08-23T23:31:15.032Z,99.90
2023-08-23T23:33:46.024Z,99.90
2023-08-23T23:36:14.594Z,99.90
2023-08-23T23:38:44.744Z,99.90
2023-08-23T23:41:13.861Z,99.90
2023-08-23T23:43:46.165Z,99.90
2023-08-23T23:46:18.743Z,99.90
2023-08-23T23:48:47.723Z,99.90
2023-08-23T23:51:15.874Z,99.90
2023-08-23T23:53:44.300Z,99.90
2023-08-23T23:56:13.396Z,99.90
2023-08-23T23:58:42.744Z,99.90
